createdAt,value
2023-03-30T00:05:52.348Z,29.40
2023-03-30T00:12:53.949Z,27.30
2023-03-30T00:16:01.683Z,23.30
2023-03-30T00:18:53.447Z,22.60
2023-03-30T00:21:35.532Z,23.90
2023-03-30T00:24:15.900Z,25.10
2023-03-30T00:27:06.614Z,27.20
2023-03-30T00:29:44.929Z,24.40
2023-03-30T00:35:10.552Z,24.40
2023-03-30T00:37:50.107Z,22.30
2023-03-30T00:40:28.091Z,26.40
2023-03-30T00:43:25.547Z,29.40
2023-03-30T00:46:13.582Z,29.90
2023-03-30T00:48:55.386Z,28.30
2023-03-30T00:51:44.620Z,29.70
2023-03-30T00:54:23.748Z,29.40
2023-03-30T00:57:00.180Z,30.20
2023-03-30T00:59:55.863Z,29.70
2023-03-30T01:02:50.887Z,30.70
2023-03-30T01:05:56.568Z,32.20
2023-03-30T01:08:47.364Z,31.80
2023-03-30T01:11:45.230Z,24.60
2023-03-30T01:14:27.269Z,19.50
2023-03-30T01:17:40.736Z,18.80
2023-03-30T01:21:01.368Z,19.20
2023-03-30T01:24:26.877Z,19.50
2023-03-30T01:27:27.416Z,15.00
2023-03-30T01:30:39.392Z,14.40
2023-03-30T01:34:13.139Z,13.60
2023-03-30T01:37:08.438Z,14.30
2023-03-30T01:40:09.581Z,13.80
2023-03-30T01:43:44.120Z,15.20
2023-03-30T01:47:08.084Z,16.70
2023-03-30T01:54:02.632Z,14.90
2023-03-30T01:57:07.344Z,15.20
2023-03-30T02:00:29.024Z,14.30
2023-03-30T02:03:25.236Z,14.70
2023-03-30T02:06:17.844Z,11.70
2023-03-30T02:09:10.251Z,11.60
2023-03-30T02:12:07.882Z,11.50
2023-03-30T02:15:04.967Z,12.30
2023-03-30T02:17:48.683Z,13.00
2023-03-30T02:20:24.385Z,13.30
2023-03-30T02:22:57.783Z,12.30
2023-03-30T02:25:38.890Z,11.20
2023-03-30T02:28:16.346Z,12.80
2023-03-30T02:30:52.982Z,11.10
2023-03-30T02:34:09.729Z,10.60
2023-03-30T02:37:12.358Z,10.50
2023-03-30T02:40:55.046Z,10.40
2023-03-30T02:44:39.298Z,11.50
2023-03-30T02:47:45.960Z,10.70
2023-03-30T02:51:10.436Z,11.10
2023-03-30T02:54:46.014Z,12.20
2023-03-30T02:58:05.134Z,14.90
2023-03-30T03:01:28.507Z,16.40
2023-03-30T03:04:27.505Z,15.80
2023-03-30T03:07:34.642Z,17.20
2023-03-30T03:10:58.729Z,17.10
2023-03-30T03:14:32.934Z,17.90
2023-03-30T03:20:18.012Z,17.40
2023-03-30T03:23:15.223Z,17.30
2023-03-30T03:26:55.233Z,16.90
2023-03-30T03:30:30.858Z,14.10
2023-03-30T03:33:33.023Z,13.00
2023-03-30T03:37:12.005Z,13.30
2023-03-30T03:40:08.283Z,13.50
2023-03-30T03:42:49.513Z,14.30
2023-03-30T03:46:02.809Z,13.70
2023-03-30T03:48:50.566Z,13.20
2023-03-30T03:51:38.322Z,13.10
2023-03-30T03:54:21.150Z,13.80
2023-03-30T03:57:16.742Z,13.80
2023-03-30T04:00:23.686Z,12.70
2023-03-30T04:03:11.827Z,14.60
2023-03-30T04:05:47.853Z,13.70
2023-03-30T04:08:27.919Z,15.50
2023-03-30T04:11:23.022Z,22.50
2023-03-30T04:14:41.412Z,27.20
2023-03-30T04:18:07.459Z,15.00
2023-03-30T04:21:10.238Z,13.30
2023-03-30T04:24:23.696Z,12.90
2023-03-30T04:27:49.295Z,15.20
2023-03-30T04:31:06.341Z,14.20
2023-03-30T04:34:15.428Z,14.80
2023-03-30T04:37:33.638Z,16.00
2023-03-30T04:40:37.446Z,16.40
2023-03-30T04:43:38.004Z,16.80
2023-03-30T04:46:48.884Z,18.00
2023-03-30T04:50:10.690Z,18.00
2023-03-30T04:56:49.264Z,17.20
2023-03-30T04:59:57.598Z,17.00
2023-03-30T05:03:23.695Z,15.00
2023-03-30T05:06:33.359Z,16.90
2023-03-30T05:09:38.769Z,18.70
2023-03-30T05:12:45.633Z,16.80
2023-03-30T05:15:43.793Z,14.70
2023-03-30T05:18:53.372Z,16.30
2023-03-30T05:22:12.693Z,18.10
2023-03-30T05:25:40.038Z,19.90
2023-03-30T05:29:01.810Z,17.70
2023-03-30T05:32:10.443Z,18.60
2023-03-30T05:35:33.385Z,19.50
2023-03-30T05:38:40.926Z,21.60
2023-03-30T05:41:48.826Z,22.00
2023-03-30T05:44:48.640Z,22.80
2023-03-30T05:48:17.328Z,23.00
2023-03-30T05:51:32.957Z,24.20
2023-03-30T05:54:42.872Z,21.10
2023-03-30T05:57:49.655Z,18.80
2023-03-30T06:00:52.556Z,18.50
2023-03-30T06:03:53.342Z,19.60
2023-03-30T06:06:47.401Z,23.10
2023-03-30T06:09:38.362Z,24.00
2023-03-30T06:12:50.456Z,27.10
2023-03-30T06:16:27.368Z,31.20
2023-03-30T06:19:30.377Z,30.90
2023-03-30T06:22:23.394Z,25.90
2023-03-30T06:25:20.317Z,25.30
2023-03-30T06:28:27.522Z,32.90
2023-03-30T06:31:31.828Z,21.80
2023-03-30T06:35:09.111Z,19.20
2023-03-30T06:37:56.248Z,20.80
2023-03-30T06:40:47.858Z,17.90
2023-03-30T06:44:04.012Z,25.50
2023-03-30T06:46:51.620Z,19.80
2023-03-30T06:49:34.477Z,20.60
2023-03-30T06:52:36.360Z,18.90
2023-03-30T06:55:15.678Z,25.40
2023-03-30T06:57:46.680Z,24.20
2023-03-30T07:00:23.623Z,20.50
2023-03-30T07:03:24.842Z,19.20
2023-03-30T07:06:08.628Z,19.50
2023-03-30T07:08:47.458Z,18.40
2023-03-30T07:11:33.577Z,19.20
2023-03-30T07:14:08.200Z,20.00
2023-03-30T07:16:44.861Z,23.50
2023-03-30T07:19:21.684Z,22.90
2023-03-30T07:21:59.239Z,25.00
2023-03-30T07:24:34.877Z,22.00
2023-03-30T07:27:15.358Z,19.90
2023-03-30T07:29:48.999Z,18.10
2023-03-30T07:32:24.149Z,22.00
2023-03-30T07:35:12.816Z,16.50
2023-03-30T07:37:50.729Z,16.90
2023-03-30T07:40:29.383Z,16.00
2023-03-30T07:43:06.964Z,16.70
2023-03-30T07:45:55.230Z,18.70
2023-03-30T07:48:38.135Z,20.60
2023-03-30T07:51:50.069Z,20.70
2023-03-30T07:55:22.562Z,23.40
2023-03-30T07:58:28.003Z,27.40
2023-03-30T08:01:04.236Z,24.10
2023-03-30T08:03:56.160Z,24.30
2023-03-30T08:06:38.265Z,23.10
2023-03-30T08:09:22.192Z,25.20
2023-03-30T08:11:59.876Z,25.20
2023-03-30T08:14:46.920Z,34.20
2023-03-30T08:17:29.343Z,18.90
2023-03-30T08:20:08.707Z,19.20
2023-03-30T08:22:45.344Z,26.50
2023-03-30T08:25:24.702Z,24.10
2023-03-30T08:28:03.517Z,24.40
2023-03-30T08:30:36.207Z,25.80
2023-03-30T08:33:16.830Z,24.20
2023-03-30T08:35:55.857Z,22.60
2023-03-30T08:38:33.122Z,19.20
2023-03-30T08:41:32.712Z,20.90
2023-03-30T08:44:28.826Z,18.40
2023-03-30T08:47:04.295Z,20.10
2023-03-30T08:49:56.617Z,20.20
2023-03-30T08:52:37.191Z,20.00
2023-03-30T08:55:26.133Z,20.10
2023-03-30T08:58:17.569Z,24.40
2023-03-30T09:01:37.486Z,17.80
2023-03-30T09:04:31.511Z,16.90
2023-03-30T09:07:18.236Z,16.20
2023-03-30T09:09:57.771Z,17.00
2023-03-30T09:13:00.438Z,14.30
2023-03-30T09:15:46.504Z,14.00
2023-03-30T09:18:25.746Z,13.30
2023-03-30T09:21:11.279Z,12.40
2023-03-30T09:23:47.427Z,12.90
2023-03-30T09:27:33.498Z,15.90
2023-03-30T09:30:30.161Z,13.30
2023-03-30T09:36:11.955Z,11.70
2023-03-30T09:38:46.039Z,10.60
2023-03-30T09:42:14.457Z,10.50
2023-03-30T09:45:17.162Z,10.80
2023-03-30T09:47:58.334Z,9.20
2023-03-30T09:50:46.969Z,10.40
2023-03-30T09:53:35.505Z,13.70
2023-03-30T09:56:20.734Z,12.60
2023-03-30T09:58:52.877Z,11.20
2023-03-30T10:01:37.208Z,11.80
2023-03-30T10:04:15.538Z,9.50
2023-03-30T10:06:55.572Z,10.60
2023-03-30T10:09:27.673Z,10.10
2023-03-30T10:12:13.129Z,9.40
2023-03-30T10:15:05.626Z,10.30
2023-03-30T10:17:44.518Z,11.80
2023-03-30T10:20:30.237Z,10.30
2023-03-30T10:23:20.507Z,10.50
2023-03-30T10:26:03.767Z,10.10
2023-03-30T10:28:37.033Z,12.70
2023-03-30T10:31:18.970Z,11.20
2023-03-30T10:34:02.202Z,9.90
2023-03-30T10:36:50.810Z,9.80
2023-03-30T10:39:39.883Z,9.10
2023-03-30T10:42:26.684Z,10.30
2023-03-30T10:45:10.008Z,10.80
2023-03-30T10:47:49.024Z,8.60
2023-03-30T10:51:07.800Z,8.70
2023-03-30T10:54:48.521Z,8.70
2023-03-30T10:57:27.684Z,9.50
2023-03-30T11:03:32.910Z,8.10
2023-03-30T11:06:23.461Z,8.30
2023-03-30T11:09:02.032Z,7.60
2023-03-30T11:11:43.865Z,10.40
2023-03-30T11:14:37.900Z,17.40
2023-03-30T11:18:00.666Z,10.20
2023-03-30T11:20:53.529Z,8.60
2023-03-30T11:23:52.449Z,6.80
2023-03-30T11:26:50.026Z,6.70
2023-03-30T11:29:39.118Z,7.50
2023-03-30T11:32:48.753Z,6.10
2023-03-30T11:35:48.326Z,7.60
2023-03-30T11:38:48.578Z,9.70
2023-03-30T11:41:38.209Z,13.10
2023-03-30T11:44:13.296Z,7.80
2023-03-30T11:47:37.798Z,7.70
2023-03-30T11:51:18.856Z,8.50
2023-03-30T11:54:25.313Z,9.80
2023-03-30T11:57:38.128Z,8.60
2023-03-30T12:00:52.078Z,8.80
2023-03-30T12:03:47.910Z,11.60
2023-03-30T12:06:52.968Z,9.10
2023-03-30T12:10:08.646Z,9.70
2023-03-30T12:12:51.360Z,9.70
2023-03-30T12:16:04.115Z,11.50
2023-03-30T12:19:39.827Z,9.90
2023-03-30T12:26:04.986Z,10.60
2023-03-30T12:32:08.579Z,10.30
2023-03-30T12:37:57.847Z,14.50
2023-03-30T12:40:52.764Z,13.90
2023-03-30T12:44:04.140Z,13.00
2023-03-30T12:47:12.206Z,14.90
2023-03-30T12:50:52.328Z,15.00
2023-03-30T12:53:55.105Z,16.90
2023-03-30T13:00:43.488Z,18.80
2023-03-30T13:03:45.403Z,17.00
2023-03-30T13:06:51.053Z,16.60
2023-03-30T13:10:23.204Z,15.00
2023-03-30T13:12:53.668Z,13.30
2023-03-30T13:15:58.043Z,12.70
2023-03-30T13:18:57.420Z,11.80
2023-03-30T13:22:01.273Z,15.00
2023-03-30T13:25:01.843Z,14.00
2023-03-30T13:27:44.517Z,15.00
2023-03-30T13:30:38.333Z,15.50
2023-03-30T13:33:37.516Z,12.00
2023-03-30T13:36:28.423Z,12.70
2023-03-30T13:39:55.695Z,13.00
2023-03-30T13:45:43.177Z,12.30
2023-03-30T13:48:45.121Z,13.10
2023-03-30T13:51:32.202Z,13.70
2023-03-30T13:54:41.507Z,13.20
2023-03-30T13:57:48.632Z,20.40
2023-03-30T14:01:00.541Z,13.50
2023-03-30T14:03:48.158Z,15.20
2023-03-30T14:06:27.566Z,11.30
2023-03-30T14:09:35.793Z,12.00
2023-03-30T14:12:40.394Z,13.20
2023-03-30T14:18:14.876Z,10.20
2023-03-30T14:21:08.958Z,10.70
2023-03-30T14:24:16.375Z,8.80
2023-03-30T14:30:46.573Z,7.70
2023-03-30T14:33:34.591Z,8.40
2023-03-30T14:36:28.250Z,9.50
2023-03-30T14:39:36.229Z,11.00
2023-03-30T14:42:39.753Z,9.00
2023-03-30T14:46:05.906Z,10.30
2023-03-30T14:48:55.980Z,10.20
2023-03-30T14:51:53.586Z,10.90
2023-03-30T14:58:12.733Z,10.70
2023-03-30T15:01:11.236Z,10.60
2023-03-30T15:04:21.921Z,15.80
2023-03-30T15:07:19.418Z,12.20
2023-03-30T15:11:14.579Z,11.20
2023-03-30T15:14:23.660Z,12.50
2023-03-30T15:17:07.865Z,16.10
2023-03-30T15:19:47.431Z,15.20
2023-03-30T15:22:56.758Z,14.70
2023-03-30T15:25:46.542Z,11.10
2023-03-30T15:29:11.257Z,12.20
2023-03-30T15:31:46.781Z,12.00
2023-03-30T15:34:33.726Z,11.90
2023-03-30T15:37:36.251Z,11.50
2023-03-30T15:40:50.124Z,11.80
2023-03-30T15:43:39.478Z,11.80
2023-03-30T15:46:34.557Z,12.20
2023-03-30T15:49:09.210Z,12.40
2023-03-30T15:52:13.600Z,12.20
2023-03-30T15:55:02.874Z,10.40
2023-03-30T15:57:55.325Z,11.40
2023-03-30T16:01:04.137Z,11.10
2023-03-30T16:08:07.318Z,9.70
2023-03-30T16:11:13.527Z,10.20
2023-03-30T16:14:17.524Z,12.40
2023-03-30T16:20:46.947Z,14.10
2023-03-30T16:27:48.151Z,9.70
2023-03-30T16:31:06.579Z,8.30
2023-03-30T16:34:23.501Z,9.00
2023-03-30T16:37:30.654Z,9.90
2023-03-30T16:40:55.640Z,10.30
2023-03-30T16:44:18.479Z,9.90
2023-03-30T16:47:43.498Z,8.90
2023-03-30T16:50:59.952Z,8.80
2023-03-30T16:54:31.972Z,25.30
2023-03-30T16:58:02.724Z,9.70
2023-03-30T17:03:59.276Z,11.10
2023-03-30T17:07:01.652Z,11.80
2023-03-30T17:10:07.427Z,11.70
2023-03-30T17:16:31.333Z,12.70
2023-03-30T17:19:32.953Z,11.10
2023-03-30T17:22:24.332Z,11.50
2023-03-30T17:25:36.306Z,11.60
2023-03-30T17:28:43.157Z,12.70
2023-03-30T17:31:29.921Z,13.20
2023-03-30T17:34:07.519Z,14.80
2023-03-30T17:36:53.024Z,22.00
2023-03-30T17:39:42.900Z,68.60
2023-03-30T17:42:27.695Z,22.30
2023-03-30T17:45:03.893Z,15.10
2023-03-30T17:48:07.702Z,13.60
2023-03-30T17:51:04.150Z,14.00
2023-03-30T17:53:47.554Z,12.10
2023-03-30T17:56:23.434Z,13.00
2023-03-30T17:58:59.077Z,16.70
2023-03-30T18:01:56.783Z,16.40
2023-03-30T18:04:49.578Z,16.70
2023-03-30T18:08:10.562Z,14.80
2023-03-30T18:14:35.220Z,15.50
2023-03-30T18:22:15.785Z,13.00
2023-03-30T18:25:32.109Z,11.90
2023-03-30T18:28:37.025Z,12.20
2023-03-30T18:31:44.489Z,12.30
2023-03-30T18:34:48.692Z,11.30
2023-03-30T18:37:36.993Z,12.40
2023-03-30T18:40:49.563Z,11.00
2023-03-30T18:43:43.268Z,9.50
2023-03-30T18:46:36.083Z,10.70
2023-03-30T18:49:54.452Z,11.60
2023-03-30T19:07:40.432Z,10.50
2023-03-30T19:12:31.930Z,9.10
2023-03-30T19:26:58.489Z,9.20
2023-03-30T19:30:04.817Z,9.30
2023-03-30T19:32:41.092Z,9.70
2023-03-30T19:35:28.629Z,10.60
2023-03-30T19:38:08.461Z,12.20
2023-03-30T19:40:42.873Z,8.60
2023-03-30T19:43:37.892Z,10.50
2023-03-30T19:46:21.420Z,9.00
2023-03-30T19:49:13.101Z,8.70
2023-03-30T19:51:52.763Z,9.60
2023-03-30T19:54:38.669Z,10.30
2023-03-30T19:57:24.898Z,9.50
2023-03-30T20:00:39.741Z,9.90
2023-03-30T20:03:28.720Z,9.50
2023-03-30T20:06:17.176Z,7.50
2023-03-30T20:08:50.315Z,6.70
2023-03-30T20:11:38.461Z,7.30
2023-03-30T20:14:20.609Z,7.90
2023-03-30T20:17:17.225Z,7.80
2023-03-30T20:20:27.340Z,7.50
2023-03-30T20:23:31.332Z,11.50
2023-03-30T20:26:29.739Z,9.10
2023-03-30T20:29:45.626Z,7.40
2023-03-30T20:32:28.071Z,7.20
2023-03-30T20:35:23.993Z,6.70
2023-03-30T20:38:40.517Z,7.10
2023-03-30T20:41:23.762Z,6.80
2023-03-30T20:44:10.059Z,6.70
2023-03-30T20:47:27.085Z,5.40
2023-03-30T20:50:30.104Z,6.30
2023-03-30T20:53:17.708Z,5.90
2023-03-30T20:56:01.013Z,5.70
2023-03-30T20:58:38.912Z,5.30
2023-03-30T21:01:28.758Z,4.70
2023-03-30T21:04:13.771Z,3.90
2023-03-30T21:06:57.350Z,4.60
2023-03-30T21:09:44.537Z,5.40
2023-03-30T21:12:27.807Z,4.10
2023-03-30T21:15:17.715Z,4.30
2023-03-30T21:17:55.394Z,4.20
2023-03-30T21:21:21.654Z,4.50
2023-03-30T21:24:00.365Z,6.10
2023-03-30T21:26:37.908Z,7.30
2023-03-30T21:29:13.171Z,7.40
2023-03-30T21:31:49.660Z,7.00
2023-03-30T21:34:30.393Z,6.00
2023-03-30T21:37:16.300Z,6.30
2023-03-30T21:39:58.319Z,4.80
2023-03-30T21:42:34.708Z,6.20
2023-03-30T21:45:19.475Z,6.80
2023-03-30T21:48:02.637Z,5.60
2023-03-30T21:50:45.868Z,7.10
2023-03-30T21:53:35.974Z,6.30
2023-03-30T21:56:18.727Z,7.10
2023-03-30T21:59:04.585Z,6.80
2023-03-30T22:01:49.814Z,7.10
2023-03-30T22:04:34.316Z,7.00
2023-03-30T22:07:21.639Z,7.20
2023-03-30T22:10:07.551Z,7.30
2023-03-30T22:12:43.060Z,6.80
2023-03-30T22:15:47.722Z,5.30
2023-03-30T22:18:20.211Z,5.10
2023-03-30T22:21:12.481Z,5.50
2023-03-30T22:23:49.746Z,4.50
2023-03-30T22:26:32.639Z,4.80
2023-03-30T22:29:09.580Z,5.60
2023-03-30T22:31:45.336Z,5.60
2023-03-30T22:34:27.572Z,4.20
2023-03-30T22:37:02.873Z,4.10
2023-03-30T22:39:37.947Z,4.60
2023-03-30T22:42:16.945Z,4.80
2023-03-30T22:44:59.209Z,4.50
2023-03-30T22:47:53.120Z,4.90
2023-03-30T22:50:33.030Z,4.50
2023-03-30T22:53:16.312Z,3.70
2023-03-30T22:56:03.369Z,4.70
2023-03-30T22:58:42.755Z,4.20
2023-03-30T23:01:40.681Z,4.00
2023-03-30T23:04:20.174Z,4.00
2023-03-30T23:07:02.691Z,4.70
2023-03-30T23:09:39.066Z,4.60
2023-03-30T23:12:44.076Z,4.60
2023-03-30T23:17:58.811Z,4.10
2023-03-30T23:20:30.322Z,5.40
2023-03-30T23:23:13.969Z,3.90
2023-03-30T23:28:52.427Z,4.60
2023-03-30T23:31:40.901Z,5.30
2023-03-30T23:34:35.498Z,5.40
2023-03-30T23:37:19.039Z,5.20
2023-03-30T23:42:44.536Z,4.50
2023-03-30T23:45:24.614Z,5.00
2023-03-30T23:48:13.636Z,4.80
2023-03-30T23:51:10.201Z,4.60
2023-03-30T23:53:55.130Z,5.60
2023-03-30T23:56:38.907Z,4.70
2023-03-30T23:59:16.848Z,4.40
